createdAt,value
2016-07-06T00:00:22.970Z,75.91
2016-07-06T00:01:22.942Z,75.91
2016-07-06T00:02:22.924Z,76
2016-07-06T00:03:22.891Z,76.1
2016-07-06T00:04:22.880Z,75.81
2016-07-06T00:05:22.856Z,76.25
2016-07-06T00:06:22.838Z,76.06
2016-07-06T00:07:22.811Z,76.16
2016-07-06T00:08:22.789Z,75.96
2016-07-06T00:09:22.767Z,76.48
2016-07-06T00:10:22.743Z,76.16
2016-07-06T00:11:22.725Z,76.35
2016-07-06T00:12:22.698Z,76.45
2016-07-06T00:13:22.676Z,76.35
2016-07-06T00:14:22.658Z,76.45
2016-07-06T00:15:22.632Z,76.73
2016-07-06T00:16:22.607Z,76.45
2016-07-06T00:17:22.585Z,76.73
2016-07-06T00:18:22.563Z,76.82
2016-07-06T00:19:22.541Z,77.11
2016-07-06T00:20:22.522Z,77.21
2016-07-06T00:21:22.495Z,76.92
2016-07-06T00:22:22.472Z,77.4
2016-07-06T00:23:22.449Z,77.11
2016-07-06T00:24:22.419Z,76.92
2016-07-06T00:25:22.396Z,77.59
2016-07-06T00:26:22.372Z,76.92
2016-07-06T00:27:22.352Z,77.21
2016-07-06T00:28:22.331Z,77.3
2016-07-06T00:29:22.299Z,77.11
2016-07-06T00:30:22.286Z,77.5
2016-07-06T00:31:22.268Z,77.3
2016-07-06T00:32:22.245Z,77.87
2016-07-06T00:33:22.208Z,77.78
2016-07-06T00:34:22.194Z,77.78
2016-07-06T00:35:22.175Z,77.78
2016-07-06T00:36:22.155Z,78.36
2016-07-06T00:37:22.131Z,78.26
2016-07-06T00:38:22.101Z,78.64
2016-07-06T00:39:22.086Z,78.26
2016-07-06T00:40:22.061Z,78.26
2016-07-06T00:41:22.050Z,78.26
2016-07-06T00:42:22.018Z,78.36
2016-07-06T00:43:21.992Z,78.26
2016-07-06T00:44:21.968Z,78.26
2016-07-06T00:45:21.948Z,78.55
2016-07-06T00:46:21.926Z,78.26
2016-07-06T00:47:21.904Z,78.36
2016-07-06T00:48:21.879Z,78.45
2016-07-06T00:49:21.858Z,78.26
2016-07-06T00:50:21.837Z,79.02
2016-07-06T00:51:21.814Z,78.93
2016-07-06T00:52:21.779Z,78.74
2016-07-06T00:53:21.758Z,78.83
2016-07-06T00:54:21.732Z,78.74
2016-07-06T00:55:21.717Z,78.93
2016-07-06T00:56:21.695Z,78.74
2016-07-06T00:57:21.676Z,78.83
2016-07-06T00:58:21.661Z,79.5
2016-07-06T00:59:21.627Z,79.41
2016-07-06T01:00:21.605Z,79.31
2016-07-06T01:01:21.582Z,79.31
2016-07-06T01:02:21.561Z,79.12
2016-07-06T01:03:21.539Z,79.41
2016-07-06T01:04:21.512Z,79.6
2016-07-06T01:05:21.489Z,79.31
2016-07-06T01:06:21.467Z,79.5
2016-07-06T01:07:21.445Z,79.69
2016-07-06T01:08:21.459Z,79.88
2016-07-06T01:09:21.486Z,79.02
2016-07-06T01:10:21.549Z,79.98
2016-07-06T01:11:21.518Z,79.6
2016-07-06T01:12:21.332Z,79.69
2016-07-06T01:13:21.308Z,79.88
2016-07-06T01:14:21.294Z,79.79
2016-07-06T01:15:21.252Z,79.79
2016-07-06T01:16:21.237Z,79.69
2016-07-06T01:17:21.213Z,79.88
2016-07-06T01:18:21.185Z,79.5
2016-07-06T01:19:21.161Z,79.6
2016-07-06T01:20:21.145Z,79.22
2016-07-06T01:21:21.109Z,79.31
2016-07-06T01:22:21.101Z,79.79
2016-07-06T01:23:21.075Z,79.75
2016-07-06T01:24:21.041Z,79.41
2016-07-06T01:25:21.028Z,79.94
2016-07-06T01:26:21.598Z,79.79
2016-07-06T01:27:20.984Z,79.36
2016-07-06T01:28:20.962Z,79.69
2016-07-06T01:29:20.927Z,79.98
2016-07-06T01:30:20.915Z,79.85
2016-07-06T01:31:20.881Z,80.41
2016-07-06T01:32:20.870Z,80.04
2016-07-06T01:33:20.834Z,80.41
2016-07-06T01:34:20.823Z,80.41
2016-07-06T01:35:20.804Z,80.41
2016-07-06T01:36:20.779Z,80.22
2016-07-06T01:37:20.756Z,80.04
2016-07-06T01:38:20.733Z,80.04
2016-07-06T01:39:20.709Z,80.13
2016-07-06T01:40:20.691Z,80.13
2016-07-06T01:41:20.663Z,80.22
2016-07-06T01:42:20.640Z,80.22
2016-07-06T01:43:20.615Z,80.22
2016-07-06T01:44:20.596Z,80.04
2016-07-06T01:45:20.570Z,80.41
2016-07-06T01:46:20.541Z,80.41
2016-07-06T01:47:20.523Z,80.8
2016-07-06T01:48:20.502Z,80.7
2016-07-06T01:49:20.482Z,80.61
2016-07-06T01:50:20.453Z,80.7
2016-07-06T01:51:20.430Z,80.7
2016-07-06T01:52:20.407Z,80.41
2016-07-06T01:53:20.378Z,80.41
2016-07-06T01:54:20.361Z,80.51
2016-07-06T01:55:20.331Z,80.32
2016-07-06T01:56:20.307Z,80.61
2016-07-06T01:57:20.290Z,80.51
2016-07-06T01:58:20.260Z,80.8
2016-07-06T01:59:20.250Z,80.51
2016-07-06T02:00:20.224Z,80.51
2016-07-06T02:01:20.201Z,80.51
2016-07-06T02:02:20.176Z,80.8
2016-07-06T02:03:20.155Z,80.61
2016-07-06T02:04:20.136Z,80.99
2016-07-06T02:05:20.105Z,80.7
2016-07-06T02:06:20.086Z,80.9
2016-07-06T02:07:20.063Z,80.8
2016-07-06T02:08:20.039Z,80.9
2016-07-06T02:09:20.014Z,81.47
2016-07-06T02:10:19.996Z,81.56
2016-07-06T02:11:19.965Z,81.56
2016-07-06T02:12:19.941Z,81.27
2016-07-06T02:13:19.917Z,81.09
2016-07-06T02:14:19.895Z,81.27
2016-07-06T02:15:19.870Z,81.37
2016-07-06T02:16:19.849Z,81.18
2016-07-06T02:17:19.828Z,81.09
2016-07-06T02:18:19.807Z,81.18
2016-07-06T02:19:19.782Z,81.09
2016-07-06T02:20:19.760Z,80.9
2016-07-06T02:21:19.736Z,81.09
2016-07-06T02:22:19.711Z,81.27
2016-07-06T02:23:19.686Z,81.18
2016-07-06T02:24:19.667Z,80.99
2016-07-06T02:25:19.644Z,81.37
2016-07-06T02:26:19.620Z,80.8
2016-07-06T02:27:19.597Z,80.7
2016-07-06T02:28:19.574Z,80.7
2016-07-06T02:29:19.552Z,80.99
2016-07-06T02:30:19.533Z,80.51
2016-07-06T02:31:19.504Z,80.9
2016-07-06T02:32:19.482Z,80.8
2016-07-06T02:33:19.456Z,80.9
2016-07-06T02:34:19.432Z,80.41
2016-07-06T02:35:19.402Z,80.51
2016-07-06T02:36:19.391Z,80.61
2016-07-06T02:37:19.368Z,80.51
2016-07-06T02:38:19.343Z,80.36
2016-07-06T02:39:19.318Z,80.7
2016-07-06T02:40:19.297Z,80.55
2016-07-06T02:41:19.275Z,80.46
2016-07-06T02:42:19.251Z,80.65
2016-07-06T02:43:19.229Z,80.65
2016-07-06T02:44:19.204Z,80.74
2016-07-06T02:45:19.172Z,80.84
2016-07-06T02:46:19.153Z,80.84
2016-07-06T02:47:19.128Z,80.74
2016-07-06T02:48:19.100Z,80.93
2016-07-06T02:49:19.086Z,80.74
2016-07-06T02:50:19.055Z,80.93
2016-07-06T02:51:19.046Z,80.74
2016-07-06T02:52:19.021Z,80.55
2016-07-06T02:53:18.999Z,80.55
2016-07-06T02:54:18.974Z,80.46
2016-07-06T02:55:18.951Z,80.93
2016-07-06T02:56:18.930Z,80.65
2016-07-06T02:57:18.907Z,80.46
2016-07-06T02:58:18.887Z,80.65
2016-07-06T02:59:18.861Z,80.93
2016-07-06T03:00:18.840Z,80.55
2016-07-06T03:01:18.816Z,80.84
2016-07-06T03:02:18.792Z,80.46
2016-07-06T03:03:18.773Z,80.27
2016-07-06T03:04:18.750Z,80.27
2016-07-06T03:05:18.731Z,80.84
2016-07-06T03:06:18.724Z,80.84
2016-07-06T03:07:18.676Z,81.37
2016-07-06T03:08:18.656Z,81.27
2016-07-06T03:09:18.632Z,81.09
2016-07-06T03:10:18.608Z,81.18
2016-07-06T03:11:18.588Z,81.03
2016-07-06T03:12:18.560Z,81.32
2016-07-06T03:13:18.536Z,81.22
2016-07-06T03:14:18.522Z,80.9
2016-07-06T03:15:18.494Z,80.99
2016-07-06T03:16:18.463Z,80.8
2016-07-06T03:17:18.443Z,81.47
2016-07-06T03:18:18.421Z,81.13
2016-07-06T03:19:18.397Z,81.41
2016-07-06T03:20:18.376Z,81.22
2016-07-06T03:21:18.352Z,81.51
2016-07-06T03:22:18.341Z,81.22
2016-07-06T03:23:18.315Z,81.13
2016-07-06T03:24:18.295Z,80.93
2016-07-06T03:25:18.264Z,81.32
2016-07-06T03:26:18.247Z,81.03
2016-07-06T03:27:18.227Z,81.22
2016-07-06T03:28:18.207Z,81.13
2016-07-06T03:29:18.183Z,81.22
2016-07-06T03:30:18.158Z,81.6
2016-07-06T03:31:18.136Z,81.32
2016-07-06T03:32:18.115Z,81.6
2016-07-06T03:33:18.091Z,81.41
2016-07-06T03:34:18.078Z,80.65
2016-07-06T03:35:18.047Z,80.65
2016-07-06T03:36:18.022Z,81.41
2016-07-06T03:37:17.999Z,80.84
2016-07-06T03:38:17.979Z,81.6
2016-07-06T03:39:17.955Z,81.6
2016-07-06T03:40:17.934Z,81.32
2016-07-06T03:41:17.909Z,81.03
2016-07-06T03:42:17.879Z,81.32
2016-07-06T03:43:17.855Z,81.7
2016-07-06T03:44:17.838Z,81.51
2016-07-06T03:45:17.817Z,81.32
2016-07-06T03:46:17.796Z,80.84
2016-07-06T03:47:17.771Z,81.32
2016-07-06T03:48:17.748Z,81.32
2016-07-06T03:49:17.718Z,81.22
2016-07-06T03:50:17.696Z,81.22
2016-07-06T03:51:17.669Z,81.13
2016-07-06T03:52:17.660Z,81.13
2016-07-06T03:53:17.634Z,81.13
2016-07-06T03:54:17.613Z,81.22
2016-07-06T03:55:17.595Z,80.84
2016-07-06T03:56:17.569Z,81.13
2016-07-06T03:57:17.545Z,81.22
2016-07-06T03:58:17.515Z,81.41
2016-07-06T03:59:17.495Z,80.93
2016-07-06T04:00:17.471Z,80.93
2016-07-06T04:01:17.462Z,81.13
2016-07-06T04:02:17.427Z,81.51
2016-07-06T04:03:17.413Z,81.32
2016-07-06T04:04:17.394Z,81.41
2016-07-06T04:05:17.370Z,81.32
2016-07-06T04:06:17.346Z,81.41
2016-07-06T04:07:17.316Z,81.32
2016-07-06T04:08:17.302Z,81.51
2016-07-06T04:09:17.269Z,81.51
2016-07-06T04:10:17.255Z,81.41
2016-07-06T04:11:17.231Z,81.22
2016-07-06T04:12:17.212Z,81.51
2016-07-06T04:13:17.186Z,81.51
2016-07-06T04:14:17.153Z,81.22
2016-07-06T04:15:17.143Z,81.32
2016-07-06T04:16:17.118Z,81.41
2016-07-06T04:17:17.097Z,81.6
2016-07-06T04:18:17.074Z,81.13
2016-07-06T04:19:17.052Z,81.32
2016-07-06T04:20:17.029Z,81.32
2016-07-06T04:21:16.999Z,81.03
2016-07-06T04:22:16.992Z,81.51
2016-07-06T04:23:16.970Z,81.7
2016-07-06T04:24:16.938Z,81.6
2016-07-06T04:25:16.918Z,81.6
2016-07-06T04:26:16.897Z,81.51
2016-07-06T04:27:16.864Z,81.7
2016-07-06T04:28:16.847Z,81.51
2016-07-06T04:29:16.815Z,81.51
2016-07-06T04:30:16.793Z,81.51
2016-07-06T04:31:16.776Z,81.79
2016-07-06T04:32:16.761Z,81.7
2016-07-06T04:33:16.730Z,81.79
2016-07-06T04:34:16.714Z,81.51
2016-07-06T04:35:16.699Z,81.41
2016-07-06T04:36:16.667Z,81.74
2016-07-06T04:37:16.648Z,81.55
2016-07-06T04:38:16.628Z,81.36
2016-07-06T04:39:17.206Z,81.74
2016-07-06T04:40:16.577Z,81.65
2016-07-06T04:41:16.554Z,80.98
2016-07-06T04:42:16.541Z,81.55
2016-07-06T04:43:16.513Z,81.36
2016-07-06T04:44:16.495Z,81.45
2016-07-06T04:45:16.476Z,80.98
2016-07-06T04:46:16.445Z,80.88
2016-07-06T04:47:16.431Z,80.4
2016-07-06T04:48:16.411Z,80.59
2016-07-06T04:49:16.385Z,80.59
2016-07-06T04:50:16.364Z,80.59
2016-07-06T04:51:16.345Z,80.3
2016-07-06T04:52:16.322Z,80.5
2016-07-06T04:53:16.298Z,80.54
2016-07-06T04:54:16.282Z,80.25
2016-07-06T04:55:16.262Z,79.77
2016-07-06T04:56:16.239Z,79.87
2016-07-06T04:57:16.218Z,79.77
2016-07-06T04:58:16.195Z,79.58
2016-07-06T04:59:16.175Z,79.87
2016-07-06T05:00:16.158Z,79.49
2016-07-06T05:01:16.133Z,79.77
2016-07-06T05:02:16.117Z,79.39
2016-07-06T05:03:16.083Z,79.2
2016-07-06T05:04:16.070Z,79.2
2016-07-06T05:05:16.051Z,79.58
2016-07-06T05:06:16.030Z,78.81
2016-07-06T05:07:16.004Z,78.91
2016-07-06T05:08:15.990Z,78.91
2016-07-06T05:09:15.970Z,78.72
2016-07-06T05:10:15.947Z,78.81
2016-07-06T05:11:15.924Z,78.72
2016-07-06T05:12:15.906Z,78.43
2016-07-06T05:13:15.876Z,78.63
2016-07-06T05:14:15.865Z,78.24
2016-07-06T05:15:15.843Z,78.34
2016-07-06T05:16:15.819Z,78.43
2016-07-06T05:17:15.806Z,78.14
2016-07-06T05:18:15.791Z,78.47
2016-07-06T05:19:15.761Z,78.43
2016-07-06T05:20:15.745Z,78.43
2016-07-06T05:21:15.727Z,78.24
2016-07-06T05:22:15.697Z,78.43
2016-07-06T05:23:15.679Z,78.43
2016-07-06T05:24:15.662Z,77.7
2016-07-06T05:25:15.641Z,77.86
2016-07-06T05:26:15.630Z,77.86
2016-07-06T05:27:15.598Z,77.8
2016-07-06T05:28:15.576Z,77.9
2016-07-06T05:29:15.556Z,77.33
2016-07-06T05:30:15.536Z,77.23
2016-07-06T05:31:15.522Z,77.04
2016-07-06T05:32:15.493Z,76.65
2016-07-06T05:33:15.475Z,76.65
2016-07-06T05:34:15.457Z,76.46
2016-07-06T05:35:15.436Z,76.27
2016-07-06T05:36:15.407Z,76.02
2016-07-06T05:37:15.397Z,76.21
2016-07-06T05:38:15.379Z,75.73
2016-07-06T05:39:15.358Z,75.73
2016-07-06T05:40:15.343Z,75.54
2016-07-06T05:41:15.324Z,75.26
2016-07-06T05:42:15.298Z,75.26
2016-07-06T05:43:15.284Z,74.3
2016-07-06T05:44:15.256Z,74.4
2016-07-06T05:45:15.979Z,74.72
2016-07-06T05:46:15.226Z,74.15
2016-07-06T05:47:15.205Z,73.38
2016-07-06T05:48:15.187Z,73.28
2016-07-06T05:49:15.171Z,73.09
2016-07-06T05:50:15.148Z,73.28
2016-07-06T05:51:15.134Z,73.19
2016-07-06T05:52:15.117Z,73.19
2016-07-06T05:53:15.096Z,72.03
2016-07-06T05:54:15.080Z,72.74
2016-07-06T05:55:15.060Z,72.32
2016-07-06T05:56:15.042Z,72.17
2016-07-06T05:57:15.023Z,71.78
2016-07-06T05:58:15.005Z,71.4
2016-07-06T05:59:14.976Z,71.31
2016-07-06T06:00:14.972Z,71.4
2016-07-06T06:01:14.954Z,71.4
2016-07-06T06:02:14.933Z,71.5
2016-07-06T06:03:14.915Z,71.31
2016-07-06T06:04:14.892Z,71.21
2016-07-06T06:05:14.881Z,71.02
2016-07-06T06:06:14.864Z,70.92
2016-07-06T06:07:14.844Z,70.64
2016-07-06T06:08:14.828Z,70.35
2016-07-06T06:09:14.810Z,69.96
2016-07-06T06:10:14.790Z,69.68
2016-07-06T06:11:14.773Z,70.15
2016-07-06T06:12:14.748Z,69.68
2016-07-06T06:13:14.730Z,69.39
2016-07-06T06:14:14.717Z,68.62
2016-07-06T06:15:14.699Z,69.1
2016-07-06T06:16:14.679Z,68.43
2016-07-06T06:17:14.658Z,69.01
2016-07-06T06:18:14.642Z,68.91
2016-07-06T06:19:14.625Z,68.62
2016-07-06T06:20:14.609Z,68.91
2016-07-06T06:21:14.593Z,68.97
2016-07-06T06:22:14.566Z,68.33
2016-07-06T06:23:14.552Z,68.33
2016-07-06T06:24:14.537Z,68.24
2016-07-06T06:25:14.520Z,67.47
2016-07-06T06:26:14.504Z,67.09
2016-07-06T06:27:14.486Z,67.09
2016-07-06T06:28:14.474Z,67.09
2016-07-06T06:29:14.452Z,66.99
2016-07-06T06:30:14.433Z,66.61
2016-07-06T06:31:14.416Z,66.71
2016-07-06T06:32:14.398Z,66.71
2016-07-06T06:33:14.378Z,66.42
2016-07-06T06:34:14.356Z,66.13
2016-07-06T06:35:14.346Z,65.78
2016-07-06T06:36:14.327Z,65.49
2016-07-06T06:37:14.313Z,65.2
2016-07-06T06:38:14.285Z,65.11
2016-07-06T06:39:14.278Z,64.25
2016-07-06T06:40:14.264Z,63.99
2016-07-06T06:41:14.242Z,63.99
2016-07-06T06:42:14.230Z,63.42
2016-07-06T06:43:14.213Z,63.7
2016-07-06T06:44:14.200Z,63.51
2016-07-06T06:45:14.181Z,63.22
2016-07-06T06:46:14.167Z,62.55
2016-07-06T06:47:14.150Z,62.55
2016-07-06T06:48:14.138Z,62.48
2016-07-06T06:49:14.121Z,61.98
2016-07-06T06:50:14.091Z,61.81
2016-07-06T06:51:14.091Z,62.01
2016-07-06T06:52:14.073Z,61.52
2016-07-06T06:53:14.655Z,61.52
2016-07-06T06:54:14.033Z,60.72
2016-07-06T06:55:14.024Z,60.63
2016-07-06T06:56:14.006Z,60.57
2016-07-06T06:57:13.984Z,60.28
2016-07-06T06:58:13.971Z,60.15
2016-07-06T06:59:13.956Z,60.72
2016-07-06T07:00:13.945Z,60.44
2016-07-06T07:01:13.928Z,60.44
2016-07-06T07:02:13.905Z,60.72
2016-07-06T07:03:13.891Z,60.66
2016-07-06T07:04:13.873Z,59.99
2016-07-06T07:05:13.867Z,59.7
2016-07-06T07:06:13.848Z,59.58
2016-07-06T07:07:13.831Z,59.86
2016-07-06T07:08:13.811Z,58.91
2016-07-06T07:09:13.802Z,59
2016-07-06T07:10:13.773Z,58.81
2016-07-06T07:11:13.770Z,58.62
2016-07-06T07:12:13.746Z,58.81
2016-07-06T07:13:13.733Z,59
2016-07-06T07:14:13.721Z,58.23
2016-07-06T07:15:13.705Z,58.14
2016-07-06T07:16:13.692Z,57.97
2016-07-06T07:17:13.676Z,57.88
2016-07-06T07:18:13.659Z,57.3
2016-07-06T07:19:13.635Z,57.52
2016-07-06T07:20:13.628Z,57.11
2016-07-06T07:21:13.615Z,56.76
2016-07-06T07:22:13.597Z,56.56
2016-07-06T07:23:13.583Z,55.38
2016-07-06T07:24:13.565Z,55.47
2016-07-06T07:25:13.551Z,55.86
2016-07-06T07:26:13.522Z,55.96
2016-07-06T07:27:13.523Z,55.96
2016-07-06T07:28:13.505Z,55.38
2016-07-06T07:29:13.486Z,55.67
2016-07-06T07:30:13.473Z,55.1
2016-07-06T07:31:13.464Z,55.38
2016-07-06T07:32:14.043Z,55.1
2016-07-06T07:33:13.427Z,54.9
2016-07-06T07:34:13.413Z,55.1
2016-07-06T07:35:13.403Z,54.74
2016-07-06T07:36:13.386Z,54.35
2016-07-06T07:37:13.357Z,54.25
2016-07-06T07:38:13.349Z,53.87
2016-07-06T07:39:13.335Z,53.52
2016-07-06T07:40:13.327Z,53.42
2016-07-06T07:41:13.313Z,53.03
2016-07-06T07:42:13.295Z,53.03
2016-07-06T07:43:13.284Z,52.94
2016-07-06T07:44:13.273Z,52.75
2016-07-06T07:45:13.258Z,52.36
2016-07-06T07:46:13.235Z,52.46
2016-07-06T07:47:13.233Z,52.46
2016-07-06T07:48:13.221Z,51.62
2016-07-06T07:49:13.204Z,51.04
2016-07-06T07:50:13.197Z,50.85
2016-07-06T07:51:13.179Z,50.66
2016-07-06T07:52:13.169Z,51.04
2016-07-06T07:53:13.153Z,51.04
2016-07-06T07:54:13.138Z,50.46
2016-07-06T07:55:13.122Z,50.37
2016-07-06T07:56:13.106Z,50.1
2016-07-06T07:57:13.095Z,49.53
2016-07-06T07:58:13.076Z,49.24
2016-07-06T07:59:13.067Z,49.05
2016-07-06T08:00:13.049Z,48.69
2016-07-06T08:01:13.042Z,48.69
2016-07-06T08:02:13.037Z,48.88
2016-07-06T08:03:13.619Z,48.28
2016-07-06T08:04:13.006Z,48.3
2016-07-06T08:05:12.996Z,47.82
2016-07-06T08:06:12.983Z,47.92
2016-07-06T08:07:12.973Z,47.82
2016-07-06T08:08:12.960Z,47.53
2016-07-06T08:09:12.947Z,47.34
2016-07-06T08:10:12.929Z,47.53
2016-07-06T08:11:12.933Z,47.15
2016-07-06T08:12:12.923Z,47.24
2016-07-06T08:13:12.900Z,47.53
2016-07-06T08:14:12.885Z,47.24
2016-07-06T08:15:13.496Z,47.24
2016-07-06T08:16:13.497Z,47.44
2016-07-06T08:17:13.486Z,47.41
2016-07-06T08:18:12.852Z,47.24
2016-07-06T08:19:12.837Z,47.15
2016-07-06T08:20:13.416Z,46.95
2016-07-06T08:21:12.809Z,46.95
2016-07-06T08:22:12.812Z,47.34
2016-07-06T08:23:12.802Z,46.47
2016-07-06T08:24:13.391Z,46.38
2016-07-06T08:25:12.768Z,46.28
2016-07-06T08:26:12.743Z,45.8
2016-07-06T08:27:12.765Z,45.51
2016-07-06T08:28:12.717Z,45.73
2016-07-06T08:29:12.709Z,45.73
2016-07-06T08:30:12.691Z,45.73
2016-07-06T08:31:12.686Z,45.25
2016-07-06T08:32:12.678Z,44.96
2016-07-06T08:33:12.684Z,44.89
2016-07-06T08:34:13.251Z,44.11
2016-07-06T08:35:12.645Z,43.65
2016-07-06T08:36:12.620Z,43.27
2016-07-06T08:37:12.623Z,43.48
2016-07-06T08:38:12.615Z,43.75
2016-07-06T08:39:12.601Z,43.46
2016-07-06T08:40:12.582Z,43.07
2016-07-06T08:41:12.578Z,43.07
2016-07-06T08:42:12.569Z,42.4
2016-07-06T08:43:12.553Z,41.94
2016-07-06T08:44:12.546Z,41.46
2016-07-06T08:45:12.535Z,40.97
2016-07-06T08:46:12.531Z,41.72
2016-07-06T08:47:12.514Z,42.02
2016-07-06T08:48:12.506Z,42.3
2016-07-06T08:49:12.496Z,42.11
2016-07-06T08:50:12.485Z,42.3
2016-07-06T08:51:12.474Z,41.82
2016-07-06T08:52:12.453Z,41.82
2016-07-06T08:53:12.445Z,41.92
2016-07-06T08:54:12.433Z,41.92
2016-07-06T08:55:12.431Z,41.92
2016-07-06T08:56:12.432Z,41.92
2016-07-06T08:57:12.428Z,41.92
2016-07-06T08:58:12.400Z,41.92
2016-07-06T08:59:12.398Z,41.82
2016-07-06T09:00:12.368Z,41.82
2016-07-06T09:01:12.369Z,41.14
2016-07-06T09:02:13.123Z,40.76
2016-07-06T09:03:12.459Z,40.76
2016-07-06T09:04:12.556Z,40.76
2016-07-06T09:05:13.231Z,40.76
2016-07-06T09:06:12.524Z,40.95
2016-07-06T09:07:13.107Z,40.95
2016-07-06T09:08:12.299Z,40.57
2016-07-06T09:09:12.897Z,41.14
2016-07-06T09:10:12.254Z,41.34
2016-07-06T09:11:12.879Z,41.34
2016-07-06T09:12:12.247Z,41.24
2016-07-06T09:13:12.248Z,41.24
2016-07-06T09:14:12.825Z,40.69
2016-07-06T09:15:12.818Z,40.59
2016-07-06T09:16:12.222Z,39.62
2016-07-06T09:17:12.792Z,39.26
2016-07-06T09:18:12.171Z,38.78
2016-07-06T09:19:12.174Z,38.21
2016-07-06T09:20:12.168Z,37.63
2016-07-06T09:21:12.136Z,37.73
2016-07-06T09:22:12.765Z,37.35
2016-07-06T09:23:12.120Z,37.25
2016-07-06T09:24:12.132Z,36.87
2016-07-06T09:25:12.125Z,37.25
2016-07-06T09:26:12.124Z,36.57
2016-07-06T09:27:12.101Z,36.09
2016-07-06T09:28:12.705Z,36.38
2016-07-06T09:29:12.110Z,36.38
2016-07-06T09:30:12.089Z,36.38
2016-07-06T09:31:12.083Z,36.65
2016-07-06T09:32:12.665Z,36.67
2016-07-06T09:33:12.039Z,36.67
2016-07-06T09:34:12.051Z,36.38
2016-07-06T09:35:12.640Z,36.19
2016-07-06T09:36:12.011Z,35.24
2016-07-06T09:37:12.627Z,34.97
2016-07-06T09:38:11.995Z,35.26
2016-07-06T09:39:12.032Z,35.26
2016-07-06T09:40:12.005Z,35.36
2016-07-06T09:41:11.982Z,35.64
2016-07-06T09:42:12.597Z,35.64
2016-07-06T09:43:12.675Z,35.16
2016-07-06T09:44:12.655Z,35.36
2016-07-06T09:45:12.841Z,35.84
2016-07-06T09:46:12.661Z,36.21
2016-07-06T09:47:12.621Z,36.21
2016-07-06T09:48:12.803Z,36.69
2016-07-06T09:49:12.809Z,37.15
2016-07-06T09:50:12.784Z,37.35
2016-07-06T09:51:12.654Z,37.63
2016-07-06T09:52:12.095Z,37.54
2016-07-06T09:53:12.627Z,37.71
2016-07-06T09:54:11.870Z,38.1
2016-07-06T09:55:11.841Z,38.28
2016-07-06T09:56:12.456Z,38.29
2016-07-06T09:57:11.852Z,38.29
2016-07-06T09:58:11.822Z,38.2
2016-07-06T09:59:11.817Z,38.2
2016-07-06T10:00:11.807Z,38.2
2016-07-06T10:01:11.780Z,38.37
2016-07-06T10:02:11.778Z,38.66
2016-07-06T10:03:12.373Z,38.83
2016-07-06T10:04:11.752Z,39.31
2016-07-06T10:05:11.736Z,39.31
2016-07-06T10:06:11.726Z,39.7
2016-07-06T10:07:11.698Z,39.51
2016-07-06T10:08:12.284Z,39.51
2016-07-06T10:09:11.685Z,39.41
2016-07-06T10:10:11.682Z,39.41
2016-07-06T10:11:11.679Z,39.51
2016-07-06T10:12:11.659Z,39.89
2016-07-06T10:13:11.639Z,39.59
2016-07-06T10:14:11.626Z,39.03
2016-07-06T10:15:11.619Z,39.12
2016-07-06T10:16:12.244Z,38.26
2016-07-06T10:17:11.586Z,38.06
2016-07-06T10:18:11.590Z,37.7
2016-07-06T10:19:11.563Z,37.31
2016-07-06T10:20:11.550Z,36.83
2016-07-06T10:21:12.184Z,36.54
2016-07-06T10:22:12.141Z,36.36
2016-07-06T10:23:12.128Z,36.36
2016-07-06T10:24:11.508Z,36.27
2016-07-06T10:25:11.487Z,36.55
2016-07-06T10:26:12.106Z,36.46
2016-07-06T10:27:12.110Z,36.75
2016-07-06T10:28:11.456Z,36.55
2016-07-06T10:29:12.084Z,36.38
2016-07-06T10:30:11.478Z,36.19
2016-07-06T10:31:11.445Z,36.19
2016-07-06T10:32:11.440Z,36.29
2016-07-06T10:33:11.418Z,36.38
2016-07-06T10:34:11.413Z,36.09
2016-07-06T10:35:11.412Z,35.61
2016-07-06T10:36:11.391Z,35.22
2016-07-06T10:37:11.975Z,34.94
2016-07-06T10:38:11.361Z,34.94
2016-07-06T10:39:11.954Z,34.94
2016-07-06T10:40:11.940Z,34.74
2016-07-06T10:41:12.217Z,34.28
2016-07-06T10:42:12.212Z,33.98
2016-07-06T10:43:11.310Z,33.52
2016-07-06T10:44:11.291Z,33.63
2016-07-06T10:45:11.294Z,32.96
2016-07-06T10:46:11.887Z,32.87
2016-07-06T10:47:11.265Z,32.68
2016-07-06T10:48:11.255Z,33.44
2016-07-06T10:49:11.249Z,33.62
2016-07-06T10:50:11.242Z,33.81
2016-07-06T10:51:11.230Z,33.8
2016-07-06T10:52:11.220Z,34.28
2016-07-06T10:53:11.212Z,34.76
2016-07-06T10:54:11.200Z,34.95
2016-07-06T10:55:11.194Z,34.86
2016-07-06T10:56:11.482Z,35.03
2016-07-06T10:57:11.172Z,35.42
2016-07-06T10:58:11.161Z,35.42
2016-07-06T10:59:13.311Z,35.22
2016-07-06T11:00:11.142Z,35.03
2016-07-06T11:01:11.126Z,35.13
2016-07-06T11:02:11.117Z,35.42
2016-07-06T11:03:11.106Z,35.13
2016-07-06T11:04:11.096Z,34.38
2016-07-06T11:05:11.097Z,34.18
2016-07-06T11:06:11.078Z,33.81
2016-07-06T11:07:11.067Z,33.52
2016-07-06T11:08:11.059Z,33.15
2016-07-06T11:09:11.051Z,33.05
2016-07-06T11:10:11.045Z,32.68
2016-07-06T11:11:11.036Z,32.49
2016-07-06T11:12:11.030Z,32.21
2016-07-06T11:13:11.025Z,32.02
2016-07-06T11:14:11.016Z,31.74
2016-07-06T11:15:11.009Z,31.36
2016-07-06T11:16:11.002Z,30.6
2016-07-06T11:17:10.997Z,30.69
2016-07-06T11:18:10.997Z,30.6
2016-07-06T11:19:10.990Z,30.69
2016-07-06T11:20:10.983Z,30.69
2016-07-06T11:21:10.974Z,30.88
2016-07-06T11:22:10.971Z,30.88
2016-07-06T11:23:10.966Z,30.68
2016-07-06T11:24:10.960Z,30.68
2016-07-06T11:25:10.961Z,30.68
2016-07-06T11:26:10.947Z,30.29
2016-07-06T11:27:10.942Z,30.29
2016-07-06T11:28:10.937Z,30.58
2016-07-06T11:29:10.931Z,30.68
2016-07-06T11:30:10.920Z,30.58
2016-07-06T11:31:10.920Z,30.78
2016-07-06T11:32:10.903Z,31.07
2016-07-06T11:33:10.898Z,30.78
2016-07-06T11:34:10.896Z,30.78
2016-07-06T11:35:10.892Z,30.78
2016-07-06T11:36:10.890Z,30.78
2016-07-06T11:37:10.879Z,30
2016-07-06T11:38:10.868Z,29.53
2016-07-06T11:39:10.875Z,29.53
2016-07-06T11:40:10.870Z,29.24
2016-07-06T11:41:10.857Z,29.44
2016-07-06T11:42:10.851Z,28.49
2016-07-06T11:43:10.858Z,28.58
2016-07-06T11:44:10.850Z,28.5
2016-07-06T11:45:10.846Z,27.72
2016-07-06T11:46:10.838Z,27.83
2016-07-06T11:47:10.829Z,27.93
2016-07-06T11:48:10.828Z,28.03
2016-07-06T11:49:10.824Z,28.3
2016-07-06T11:50:10.819Z,28.11
2016-07-06T11:51:10.817Z,27.93
2016-07-06T11:52:10.813Z,28.4
2016-07-06T11:53:10.805Z,27.91
2016-07-06T11:54:10.803Z,28.19
2016-07-06T11:55:10.798Z,28.09
2016-07-06T11:56:10.793Z,27.71
2016-07-06T11:57:10.791Z,27.51
2016-07-06T11:58:10.787Z,27.51
2016-07-06T11:59:10.781Z,27.13
2016-07-06T12:00:10.777Z,26.84
2016-07-06T12:01:10.773Z,27.13
2016-07-06T12:02:10.771Z,27.32
2016-07-06T12:03:10.774Z,27.98
2016-07-06T12:04:10.767Z,28.55
2016-07-06T12:05:10.755Z,29.12
2016-07-06T12:06:10.749Z,29.5
2016-07-06T12:07:10.748Z,29.5
2016-07-06T12:08:10.729Z,29.9
2016-07-06T12:09:10.721Z,29.5
2016-07-06T12:10:10.726Z,29.32
2016-07-06T12:11:10.713Z,28.55
2016-07-06T12:12:10.706Z,29.33
2016-07-06T12:13:10.701Z,29.15
2016-07-06T12:14:10.697Z,28.56
2016-07-06T12:15:10.688Z,28.76
2016-07-06T12:16:10.687Z,28.38
2016-07-06T12:17:10.667Z,28.28
2016-07-06T12:18:10.673Z,28.56
2016-07-06T12:19:10.660Z,29.15
2016-07-06T12:20:10.647Z,29.43
2016-07-06T12:21:10.640Z,28.64
2016-07-06T12:22:10.640Z,28.52
2016-07-06T12:23:10.629Z,28.62
2016-07-06T12:24:10.619Z,29.09
2016-07-06T12:25:10.606Z,29.19
2016-07-06T12:26:10.604Z,29.28
2016-07-06T12:27:10.598Z,29.57
2016-07-06T12:28:10.589Z,29.09
2016-07-06T12:29:10.582Z,29.2
2016-07-06T12:30:10.570Z,28.52
2016-07-06T12:31:10.552Z,28.54
2016-07-06T12:32:10.549Z,28.64
2016-07-06T12:33:10.547Z,28.36
2016-07-06T12:34:10.541Z,28.36
2016-07-06T12:35:10.522Z,27.78
2016-07-06T12:36:10.524Z,27.79
2016-07-06T12:37:10.512Z,27.31
2016-07-06T12:38:10.505Z,27.6
2016-07-06T12:39:10.505Z,27.7
2016-07-06T12:40:10.497Z,27.68
2016-07-06T12:41:10.475Z,27.97
2016-07-06T12:42:10.475Z,28.36
2016-07-06T12:43:10.459Z,28.55
2016-07-06T12:44:10.452Z,28.64
2016-07-06T12:45:10.444Z,28.64
2016-07-06T12:46:10.437Z,28.64
2016-07-06T12:47:10.430Z,28.64
2016-07-06T12:48:10.410Z,28.44
2016-07-06T12:49:10.401Z,28.34
2016-07-06T12:50:10.392Z,27.67
2016-07-06T12:51:10.379Z,27.1
2016-07-06T12:52:10.370Z,27.1
2016-07-06T12:53:10.372Z,26.42
2016-07-06T12:54:10.365Z,26.05
2016-07-06T12:55:10.354Z,25.37
2016-07-06T12:56:10.349Z,24.9